createdAt,value
2018-02-22T00:00:05.157Z,3.1
2018-02-22T00:15:05.249Z,3.1
2018-02-22T00:30:04.417Z,3
2018-02-22T00:45:05.515Z,2.8
2018-02-22T01:00:05.214Z,2.5
2018-02-22T01:15:04.723Z,2.5
2018-02-22T01:30:05.109Z,2.5
2018-02-22T01:45:04.715Z,2.6
2018-02-22T02:00:05.687Z,2.4
2018-02-22T02:15:08.509Z,2.5
2018-02-22T02:30:04.965Z,2.5
2018-02-22T02:45:04.748Z,2.6
2018-02-22T03:00:04.888Z,2.5
2018-02-22T03:15:06.149Z,2.4
2018-02-22T03:30:04.259Z,2.6
2018-02-22T03:45:07.347Z,2.5
2018-02-22T04:00:06.167Z,2.3
2018-02-22T04:15:04.728Z,2.1
2018-02-22T04:30:04.904Z,2.1
2018-02-22T04:45:04.964Z,1.9
2018-02-22T05:00:04.719Z,1.8
2018-02-22T05:15:06.163Z,1.8
2018-02-22T05:30:20.560Z,1.6
2018-02-22T05:45:05.151Z,1.6
2018-02-22T06:00:05.424Z,1.6
2018-02-22T06:15:04.873Z,1.5
2018-02-22T06:30:08.179Z,1.3
2018-02-22T06:45:08.134Z,1.5
2018-02-22T07:00:11.239Z,1.5
2018-02-22T07:15:06.224Z,1.4
2018-02-22T07:30:04.917Z,1.4
2018-02-22T07:45:04.345Z,1.5
2018-02-22T08:00:05.311Z,1.5
2018-02-22T08:15:04.996Z,1.5
2018-02-22T08:30:05.224Z,1.7
2018-02-22T08:45:04.722Z,1.6
2018-02-22T09:00:04.622Z,1.8
2018-02-22T09:15:08.258Z,1.6
2018-02-22T09:30:06.264Z,1.7
2018-02-22T09:45:08.338Z,1.9
2018-02-22T10:00:04.276Z,1.9
2018-02-22T10:15:04.266Z,1.8
2018-02-22T10:30:04.809Z,1.8
2018-02-22T10:45:04.316Z,2.1
2018-02-22T11:00:04.363Z,2
2018-02-22T11:15:05.480Z,2.1
2018-02-22T11:30:06.174Z,1.9
2018-02-22T11:45:05.603Z,1.8
2018-02-22T12:00:06.247Z,1.8
2018-02-22T12:15:05.178Z,1.9
2018-02-22T12:30:04.931Z,2
2018-02-22T12:45:11.153Z,2
2018-02-22T13:00:04.705Z,2.2
2018-02-22T13:15:04.264Z,2.1
2018-02-22T13:30:23.110Z,2.2
2018-02-22T13:45:04.670Z,2.1
2018-02-22T14:00:05.191Z,2.1
2018-02-22T14:15:04.624Z,2.1
2018-02-22T14:30:15.001Z,2.2
2018-02-22T14:45:04.997Z,2.2
2018-02-22T15:00:04.926Z,2.3
2018-02-22T15:15:05.542Z,2.4
2018-02-22T15:30:04.564Z,2.5
2018-02-22T15:45:06.339Z,2.4
2018-02-22T16:00:06.209Z,2.5
2018-02-22T16:15:05.711Z,2.4
2018-02-22T16:30:04.576Z,2.2
2018-02-22T16:45:04.453Z,2.3
2018-02-22T17:00:05.001Z,2.1
2018-02-22T17:15:05.201Z,2.3
2018-02-22T17:30:05.017Z,2.3
2018-02-22T17:45:05.222Z,2.4
2018-02-22T18:00:04.717Z,2.4
2018-02-22T18:15:05.362Z,2.5
2018-02-22T18:30:05.054Z,2.5
2018-02-22T18:45:04.452Z,2.3
2018-02-22T19:00:04.899Z,2.4
2018-02-22T19:15:05.994Z,2.4
2018-02-22T19:30:11.861Z,2.3
2018-02-22T19:45:04.934Z,2.3
2018-02-22T20:00:04.394Z,2.4
2018-02-22T20:15:04.941Z,2.5
2018-02-22T20:30:04.624Z,2.4
2018-02-22T20:45:05.179Z,2.5
2018-02-22T21:00:04.733Z,2.4
2018-02-22T21:15:07.911Z,2.4
2018-02-22T21:30:08.247Z,2.3
2018-02-22T21:45:05.751Z,2.2
2018-02-22T22:00:08.017Z,2.2
2018-02-22T22:15:04.774Z,2.3
2018-02-22T22:30:05.162Z,2.3
2018-02-22T22:45:08.040Z,2.4
2018-02-22T23:00:08.416Z,2.1
2018-02-22T23:15:12.546Z,2.1
2018-02-22T23:30:04.334Z,2.2
2018-02-22T23:45:04.417Z,2.2
